Time;durP1;ratioP1;P1;durP2;ratioP2;P2;SDS_P1;SDS_P2;PMS_P1;PMS_P2;Temp;Humidity;BMP_temperature;BMP_pressure;BME280_temperature;BME280_humidity;BME280_pressure;Samples;Min_cycle;Max_cycle;Signal;HPM_P1;HPM_P2
2022/05/11 00:01:29;;;;;;;;;;;;;;;;;;5050252;28;20006;-49
2022/05/11 00:03:55;;;;;;;;;;;;;;;;;;5051933;28;20351;-44
2022/05/11 00:06:22;;;;;;;;;;;;;;;;;;5049886;28;20334;-48
2022/05/11 00:08:50;;;;;;;;;;;;;;;;;;5051412;28;20015;-49
2022/05/11 00:11:16;;;;;;;;;;;;;;;;;;5051439;28;19910;-50
2022/05/11 00:13:44;;;;;;;;;;;;;;;;;;5052374;28;20012;-49
2022/05/11 00:16:11;;;;;;;;;;;;;;;;;;5049538;28;19919;-54
2022/05/11 00:18:37;;;;;;;;;;;;;;;;;;5051236;28;20005;-52
2022/05/11 00:21:03;;;;;;;;;;;;;;;;;;5051642;28;19917;-51
2022/05/11 00:23:30;;;;;;;;;;;;;;;;;;5051836;28;19909;-49
2022/05/11 00:25:56;;;;;;;;;;;;;;;;;;5048868;28;19958;-51
2022/05/11 00:28:23;;;;;;;;;;;;;;;;;;5049739;28;19916;-47
2022/05/11 00:30:49;;;;;;;;;;;;;;;;;;5051624;28;20000;-49
2022/05/11 00:33:16;;;;;;;;;;;;;;;;;;5051212;28;19974;-55
2022/05/11 00:35:42;;;;;;;;;;;;;;;;;;5050525;28;19937;-49
2022/05/11 00:38:09;;;;;;;;;;;;;;;;;;5049790;28;20494;-55
2022/05/11 00:40:35;;;;;;;;;;;;;;;;;;5047669;28;20447;-57
2022/05/11 00:43:02;;;;;;;;;;;;;;;;;;5050400;28;20322;-48
2022/05/11 00:45:28;;;;;;;;;;;;;;;;;;5050799;28;19913;-54
2022/05/11 00:47:54;;;;;;;;;;;;;;;;;;5049060;28;19909;-58
2022/05/11 00:50:21;;;;;;;;;;;;;;;;;;5048434;28;19951;-49
2022/05/11 00:52:47;;;;;;;;;;;;;;;;;;5049579;28;20219;-47
2022/05/11 00:55:14;;;;;;;;;;;;;;;;;;5050179;28;19917;-52
2022/05/11 00:57:40;;;;;;;;;;;;;;;;;;5047967;28;19920;-50
2022/05/11 01:00:07;;;;;;;;;;;;;;;;;;5051261;28;19971;-53
2022/05/11 01:02:34;;;;;;;;;;;;;;;;;;5050277;28;20000;-47
2022/05/11 01:05:00;;;;;;;;;;;;;;;;;;5051871;28;20438;-48
2022/05/11 01:07:27;;;;;;;;;;;;;;;;;;5049398;28;20054;-53
2022/05/11 01:09:53;;;;;;;;;;;;;;;;;;5053657;28;19920;-50
2022/05/11 01:12:19;;;;;;;;;;;;;;;;;;5047639;28;20494;-54
2022/05/11 01:14:46;;;;;;;;;;;;;;;;;;5051138;28;20307;-50
2022/05/11 01:17:12;;;;;;;;;;;;;;;;;;5046717;28;19909;-43
2022/05/11 01:19:39;;;;;;;;;;;;;;;;;;5051699;28;20378;-45
2022/05/11 01:22:05;;;;;;;;;;;;;;;;;;5051789;28;19909;-50
2022/05/11 01:24:32;;;;;;;;;;;;;;;;;;5053709;28;20335;-40
2022/05/11 01:26:58;;;;;;;;;;;;;;;;;;5045112;28;19909;-53
2022/05/11 01:29:25;;;;;;;;;;;;;;;;;;5038096;28;19957;-45
2022/05/11 01:31:51;;;;;;;;;;;;;;;;;;5053043;28;19921;-53
2022/05/11 01:34:18;;;;;;;;;;;;;;;;;;5052752;28;19915;-51
2022/05/11 01:36:44;;;;;;;;;;;;;;;;;;5047801;28;19960;-46
2022/05/11 01:39:11;;;;;;;;;;;;;;;;;;5058974;28;19927;-54
2022/05/11 01:41:38;;;;;;;;;;;;;;;;;;5052664;28;19913;-48
2022/05/11 01:44:04;;;;;;;;;;;;;;;;;;5053168;28;19909;-54
2022/05/11 01:46:31;;;;;;;;;;;;;;;;;;5053089;28;19916;-51
2022/05/11 01:48:57;;;;;;;;;;;;;;;;;;5034541;28;19947;-47
2022/05/11 01:51:24;;;;;;;;;;;;;;;;;;5051804;28;19957;-43
2022/05/11 01:53:51;;;;;;;;;;;;;;;;;;5072508;28;19908;-47
2022/05/11 01:56:19;;;;;;;;;;;;;;;;;;5059801;28;19957;-51
2022/05/11 01:58:45;;;;;;;;;;;;;;;;;;5052541;28;20267;-51
2022/05/11 02:01:12;;;;;;;;;;;;;;;;;;5053444;28;20308;-51
2022/05/11 02:03:38;;;;;;;;;;;;;;;;;;5052539;28;19908;-49
2022/05/11 02:08:49;;;;;;;;;;;;;;;;;;5056467;28;20493;-49
2022/05/11 02:11:16;;;;;;;;;;;;;;;;;;5073134;28;19908;-51
2022/05/11 02:13:43;;;;;;;;;;;;;;;;;;5059137;28;19928;-57
2022/05/11 02:16:10;;;;;;;;;;;;;;;;;;5052515;28;20018;-55
2022/05/11 02:18:36;;;;;;;;;;;;;;;;;;5042829;28;19996;-51
2022/05/11 02:21:03;;;;;;;;;;;;;;;;;;5050161;28;19924;-52
2022/05/11 02:23:29;;;;;;;;;;;;;;;;;;5041317;28;19917;-51
2022/05/11 02:25:56;;;;;;;;;;;;;;;;;;5031732;28;20008;-52
2022/05/11 02:28:22;;;;;;;;;;;;;;;;;;5032311;28;19916;-50
2022/05/11 02:30:49;;;;;;;;;;;;;;;;;;5032449;28;19909;-56
2022/05/11 02:33:15;;;;;;;;;;;;;;;;;;5031601;28;20336;-54
2022/05/11 02:35:42;;;;;;;;;;;;;;;;;;5031729;28;20272;-53
2022/05/11 02:38:09;;;;;;;;;;;;;;;;;;5032182;28;20034;-54
2022/05/11 02:40:35;;;;;;;;;;;;;;;;;;5032412;28;20352;-47
2022/05/11 02:43:02;;;;;;;;;;;;;;;;;;5032271;28;20319;-52
2022/05/11 02:45:28;;;;;;;;;;;;;;;;;;5063938;28;19910;-55
2022/05/11 02:47:55;;;;;;;;;;;;;;;;;;5031582;28;20341;-47
2022/05/11 02:50:21;;;;;;;;;;;;;;;;;;5032302;28;19918;-53
2022/05/11 02:52:48;;;;;;;;;;;;;;;;;;5036054;28;19940;-47
2022/05/11 02:55:14;;;;;;;;;;;;;;;;;;5036615;28;19996;-51
2022/05/11 02:57:40;;;;;;;;;;;;;;;;;;5035988;28;19920;-50
2022/05/11 03:00:07;;;;;;;;;;;;;;;;;;5035919;28;19917;-45
2022/05/11 03:02:33;;;;;;;;;;;;;;;;;;5036496;28;20327;-51
2022/05/11 03:05:00;;;;;;;;;;;;;;;;;;5035909;28;19963;-55
2022/05/11 03:07:26;;;;;;;;;;;;;;;;;;5035870;28;19927;-51
2022/05/11 03:09:53;;;;;;;;;;;;;;;;;;5036219;28;19910;-49
2022/05/11 03:12:22;;;;;;;;;;;;;;;;;;5036280;28;20440;-55
2022/05/11 03:14:48;;;;;;;;;;;;;;;;;;5035949;28;19909;-52
2022/05/11 03:17:14;;;;;;;;;;;;;;;;;;5035883;28;19909;-54
2022/05/11 03:19:41;;;;;;;;;;;;;;;;;;5035430;28;19929;-51
2022/05/11 03:22:07;;;;;;;;;;;;;;;;;;5036164;28;19909;-52
2022/05/11 03:24:34;;;;;;;;;;;;;;;;;;5039066;28;19917;-45
2022/05/11 03:27:00;;;;;;;;;;;;;;;;;;5051427;28;19916;-55
2022/05/11 03:29:28;;;;;;;;;;;;;;;;;;5055342;28;20286;-52
2022/05/11 03:34:39;;;;;;;;;;;;;;;;;;5042518;28;19920;-53
2022/05/11 03:37:06;;;;;;;;;;;;;;;;;;5050383;28;19913;-50
2022/05/11 03:39:32;;;;;;;;;;;;;;;;;;5055629;28;19923;-46
2022/05/11 03:41:59;;;;;;;;;;;;;;;;;;5055186;28;19909;-53
2022/05/11 03:44:26;;;;;;;;;;;;;;;;;;5053937;28;20043;-53
2022/05/11 03:46:52;;;;;;;;;;;;;;;;;;5055462;28;20287;-49
2022/05/11 03:49:18;;;;;;;;;;;;;;;;;;5054469;28;20403;-48
2022/05/11 03:51:45;;;;;;;;;;;;;;;;;;5055002;28;19913;-50
2022/05/11 03:54:11;;;;;;;;;;;;;;;;;;5055412;28;19940;-49
2022/05/11 03:56:38;;;;;;;;;;;;;;;;;;5055200;28;19962;-52
2022/05/11 03:59:04;;;;;;;;;;;;;;;;;;5055048;28;19955;-53
2022/05/11 04:01:31;;;;;;;;;;;;;;;;;;5054709;28;19913;-51
2022/05/11 04:03:58;;;;;;;;;;;;;;;;;;5053623;28;19905;-51
2022/05/11 04:06:24;;;;;;;;;;;;;;;;;;5054714;28;19924;-46
2022/05/11 04:08:51;;;;;;;;;;;;;;;;;;5055086;28;19908;-50
2022/05/11 04:11:22;;;;;;;;;;;;;;;;;;5053723;28;20202;-53
2022/05/11 04:13:49;;;;;;;;;;;;;;;;;;5054021;28;19909;-44
2022/05/11 04:16:15;;;;;;;;;;;;;;;;;;5054158;28;19909;-51
2022/05/11 04:18:42;;;;;;;;;;;;;;;;;;5054990;28;19917;-51
2022/05/11 04:21:09;;;;;;;;;;;;;;;;;;5054394;28;20298;-52
2022/05/11 04:23:35;;;;;;;;;;;;;;;;;;5071118;28;19999;-43
2022/05/11 04:26:02;;;;;;;;;;;;;;;;;;5075094;28;19909;-48
2022/05/11 04:28:30;;;;;;;;;;;;;;;;;;5074373;28;19912;-49
2022/05/11 04:30:56;;;;;;;;;;;;;;;;;;5074091;28;19984;-50
2022/05/11 04:33:23;;;;;;;;;;;;;;;;;;5074605;28;19913;-50
2022/05/11 04:35:49;;;;;;;;;;;;;;;;;;5073942;28;19920;-50
2022/05/11 04:38:15;;;;;;;;;;;;;;;;;;5074323;28;19915;-49
2022/05/11 04:40:43;;;;;;;;;;;;;;;;;;5073461;28;19983;-50
2022/05/11 04:43:10;;;;;;;;;;;;;;;;;;5073972;28;20002;-46
2022/05/11 04:45:36;;;;;;;;;;;;;;;;;;5073586;28;19908;-45
2022/05/11 04:48:03;;;;;;;;;;;;;;;;;;5074234;28;19909;-55
2022/05/11 04:50:29;;;;;;;;;;;;;;;;;;5073956;28;19936;-50
2022/05/11 04:52:56;;;;;;;;;;;;;;;;;;5073472;28;19909;-47
2022/05/11 04:55:22;;;;;;;;;;;;;;;;;;5073293;28;19995;-52
2022/05/11 04:57:49;;;;;;;;;;;;;;;;;;5074084;28;19908;-50
2022/05/11 05:00:15;;;;;;;;;;;;;;;;;;5073442;28;19978;-51
2022/05/11 05:02:41;;;;;;;;;;;;;;;;;;5073991;28;19995;-52
2022/05/11 05:05:10;;;;;;;;;;;;;;;;;;5073911;28;20029;-44
2022/05/11 05:07:36;;;;;;;;;;;;;;;;;;5073436;28;20371;-51
2022/05/11 05:10:03;;;;;;;;;;;;;;;;;;5073543;28;19973;-51
2022/05/11 05:12:29;;;;;;;;;;;;;;;;;;5073980;28;20355;-49
2022/05/11 05:14:56;;;;;;;;;;;;;;;;;;5073256;28;20362;-53
2022/05/11 05:17:22;;;;;;;;;;;;;;;;;;5073017;28;19920;-48
2022/05/11 05:19:49;;;;;;;;;;;;;;;;;;5072663;28;20382;-50
2022/05/11 05:22:15;;;;;;;;;;;;;;;;;;5073554;28;19915;-50
2022/05/11 05:24:42;;;;;;;;;;;;;;;;;;5073046;28;19978;-46
2022/05/11 05:27:08;;;;;;;;;;;;;;;;;;5073594;28;19994;-49
2022/05/11 05:32:19;;;;;;;;;;;;;;;;;;5058569;28;19923;-49
2022/05/11 05:34:46;;;;;;;;;;;;;;;;;;5047873;28;19917;-52
2022/05/11 05:37:12;;;;;;;;;;;;;;;;;;5048918;28;19913;-55
2022/05/11 05:39:39;;;;;;;;;;;;;;;;;;5048810;28;19972;-53
2022/05/11 05:42:05;;;;;;;;;;;;;;;;;;5048894;28;20275;-50
2022/05/11 05:44:32;;;;;;;;;;;;;;;;;;5047265;28;19931;-51
2022/05/11 05:46:58;;;;;;;;;;;;;;;;;;5047642;28;20229;-50
2022/05/11 05:49:25;;;;;;;;;;;;;;;;;;5050200;28;20079;-51
2022/05/11 05:51:51;;;;;;;;;;;;;;;;;;5049859;28;19960;-57
2022/05/11 05:54:18;;;;;;;;;;;;;;;;;;5046985;28;19908;-53
2022/05/11 05:56:47;;;;;;;;;;;;;;;;;;5050646;28;20382;-51
2022/05/11 05:59:14;;;;;;;;;;;;;;;;;;5049993;28;19967;-47
2022/05/11 06:01:41;;;;;;;;;;;;;;;;;;5048308;28;19913;-50
2022/05/11 06:04:07;;;;;;;;;;;;;;;;;;5047417;28;19909;-50
2022/05/11 06:06:34;;;;;;;;;;;;;;;;;;5049825;28;19951;-47
2022/05/11 06:09:00;;;;;;;;;;;;;;;;;;5049552;28;19996;-47
2022/05/11 06:11:27;;;;;;;;;;;;;;;;;;5050026;28;19909;-53
2022/05/11 06:13:54;;;;;;;;;;;;;;;;;;5047341;28;19970;-50
2022/05/11 06:16:20;;;;;;;;;;;;;;;;;;5052522;28;19909;-54
2022/05/11 06:18:47;;;;;;;;;;;;;;;;;;5047787;28;19960;-51
2022/05/11 06:21:13;;;;;;;;;;;;;;;;;;5051223;28;19915;-49
2022/05/11 06:23:40;;;;;;;;;;;;;;;;;;5048607;28;19909;-51
2022/05/11 06:26:08;;;;;;;;;;;;;;;;;;5051448;28;19979;-51
2022/05/11 06:28:35;;;;;;;;;;;;;;;;;;5048363;28;20275;-45
2022/05/11 06:31:01;;;;;;;;;;;;;;;;;;5048236;28;19909;-44
2022/05/11 06:33:28;;;;;;;;;;;;;;;;;;5049696;28;19917;-54
2022/05/11 06:35:55;;;;;;;;;;;;;;;;;;5049173;28;19915;-44
2022/05/11 06:38:21;;;;;;;;;;;;;;;;;;5047167;28;19916;-56
2022/05/11 06:40:48;;;;;;;;;;;;;;;;;;5049626;28;20006;-47
2022/05/11 06:43:15;;;;;;;;;;;;;;;;;;5049829;28;20015;-52
2022/05/11 06:45:42;;;;;;;;;;;;;;;;;;5049261;28;20334;-51
2022/05/11 06:48:08;;;;;;;;;;;;;;;;;;5047254;28;19913;-54
2022/05/11 06:50:35;;;;;;;;;;;;;;;;;;5047550;28;19909;-55
2022/05/11 06:53:01;;;;;;;;;;;;;;;;;;5048916;28;19909;-45
2022/05/11 07:00:57;;;;;;;;;;;;;;;;;;5046018;28;20345;-51
2022/05/11 07:03:24;;;;;;;;;;;;;;;;;;5050908;28;19919;-46
2022/05/11 07:05:50;;;;;;;;;;;;;;;;;;5046683;28;19978;-46
2022/05/11 07:08:16;;;;;;;;;;;;;;;;;;5048785;28;19916;-44
2022/05/11 07:12:17;;;;;;;;;;;;;;;;;;5046662;28;19909;-47
2022/05/11 07:13:29;;;;;;;;;;;;;;;;;;5049522;28;19952;-51
2022/05/11 07:15:55;;;;;;;;;;;;;;;;;;5048550;28;19913;-48
2022/05/11 07:18:22;;;;;;;;;;;;;;;;;;5048799;28;19913;-51
2022/05/11 07:20:51;;;;;;;;;;;;;;;;;;5046848;28;19928;-49
2022/05/11 07:23:18;;;;;;;;;;;;;;;;;;5048855;28;19964;-48
2022/05/11 07:25:45;;;;;;;;;;;;;;;;;;5048004;28;19909;-52
2022/05/11 07:28:12;;;;;;;;;;;;;;;;;;5046911;28;19908;-51
2022/05/11 07:30:39;;;;;;;;;;;;;;;;;;5047334;28;19913;-52
2022/05/11 07:33:05;;;;;;;;;;;;;;;;;;5048179;28;20348;-47
2022/05/11 07:35:32;;;;;;;;;;;;;;;;;;5048861;28;19913;-51
2022/05/11 07:37:59;;;;;;;;;;;;;;;;;;5050104;28;19913;-45
2022/05/11 07:40:26;;;;;;;;;;;;;;;;;;5052927;28;20328;-48
2022/05/11 07:42:53;;;;;;;;;;;;;;;;;;5050124;28;19908;-45
2022/05/11 07:45:22;;;;;;;;;;;;;;;;;;5052764;28;19909;-50
2022/05/11 07:47:49;;;;;;;;;;;;;;;;;;5051421;28;19917;-51
2022/05/11 07:50:15;;;;;;;;;;;;;;;;;;5051725;28;19943;-48
2022/05/11 07:52:41;;;;;;;;;;;;;;;;;;5050555;28;19955;-48
2022/05/11 07:55:08;;;;;;;;;;;;;;;;;;5052360;28;19909;-49
2022/05/11 08:00:19;;;;;;;;;;;;;;;;;;5052821;28;19931;-48
2022/05/11 08:02:45;;;;;;;;;;;;;;;;;;5049542;28;19915;-44
2022/05/11 08:05:12;;;;;;;;;;;;;;;;;;5052865;28;19909;-51
2022/05/11 08:07:39;;;;;;;;;;;;;;;;;;5052690;28;20007;-43
2022/05/11 08:10:05;;;;;;;;;;;;;;;;;;5050077;28;19955;-50
2022/05/11 08:12:32;;;;;;;;;;;;;;;;;;5050419;28;19927;-46
2022/05/11 08:14:59;;;;;;;;;;;;;;;;;;5052548;28;20271;-47
2022/05/11 08:17:25;;;;;;;;;;;;;;;;;;5052931;28;19924;-49
2022/05/11 08:19:52;;;;;;;;;;;;;;;;;;5049916;28;19923;-47
2022/05/11 08:22:18;;;;;;;;;;;;;;;;;;5049899;28;20008;-45
2022/05/11 08:24:45;;;;;;;;;;;;;;;;;;5052580;28;19936;-50
2022/05/11 08:27:12;;;;;;;;;;;;;;;;;;5052593;28;19909;-49
2022/05/11 08:35:07;;;;;;;;;;;;;;;;;;5050032;28;19939;-51
2022/05/11 08:37:34;;;;;;;;;;;;;;;;;;5051143;28;19916;-46
2022/05/11 08:40:01;;;;;;;;;;;;;;;;;;5050756;28;21579;-46
2022/05/11 08:42:27;;;;;;;;;;;;;;;;;;5049895;28;19909;-48
2022/05/11 08:44:53;;;;;;;;;;;;;;;;;;5054940;28;19915;-49
2022/05/11 08:47:20;;;;;;;;;;;;;;;;;;5054641;28;19905;-47
2022/05/11 08:49:46;;;;;;;;;;;;;;;;;;5052568;28;19995;-46
2022/05/11 08:52:13;;;;;;;;;;;;;;;;;;5054069;28;19905;-45
2022/05/11 08:54:39;;;;;;;;;;;;;;;;;;5054311;28;19912;-42
2022/05/11 08:57:06;;;;;;;;;;;;;;;;;;5054126;28;19952;-43
2022/05/11 08:59:32;;;;;;;;;;;;;;;;;;5053710;28;19917;-46
2022/05/11 09:01:59;;;;;;;;;;;;;;;;;;5053572;28;19916;-45
2022/05/11 09:04:25;;;;;;;;;;;;;;;;;;5053779;28;19936;-51
2022/05/11 09:06:51;;;;;;;;;;;;;;;;;;5053826;28;19929;-52
2022/05/11 09:09:18;;;;;;;;;;;;;;;;;;5052889;28;19916;-49
2022/05/11 09:11:44;;;;;;;;;;;;;;;;;;5053381;28;19920;-47
2022/05/11 09:14:11;;;;;;;;;;;;;;;;;;5053630;28;19915;-50
2022/05/11 09:16:38;;;;;;;;;;;;;;;;;;5053864;28;19916;-46
2022/05/11 09:19:04;;;;;;;;;;;;;;;;;;5053289;28;20034;-50
2022/05/11 09:21:32;;;;;;;;;;;;;;;;;;5053971;28;19916;-46
2022/05/11 09:23:58;;;;;;;;;;;;;;;;;;5053275;28;20004;-47
2022/05/11 09:26:25;;;;;;;;;;;;;;;;;;5053405;28;19909;-50
2022/05/11 09:28:52;;;;;;;;;;;;;;;;;;5053648;28;19960;-43
2022/05/11 09:31:20;;;;;;;;;;;;;;;;;;5053522;28;19916;-42
2022/05/11 09:33:46;;;;;;;;;;;;;;;;;;5052836;28;19909;-48
2022/05/11 09:36:12;;;;;;;;;;;;;;;;;;5053283;28;19915;-42
2022/05/11 09:38:40;;;;;;;;;;;;;;;;;;5053452;28;20062;-45
2022/05/11 09:41:06;;;;;;;;;;;;;;;;;;5053174;28;19913;-47
2022/05/11 09:43:33;;;;;;;;;;;;;;;;;;5053408;28;19905;-48
2022/05/11 09:45:59;;;;;;;;;;;;;;;;;;5052905;28;19909;-44
2022/05/11 09:48:27;;;;;;;;;;;;;;;;;;5053205;28;19905;-48
2022/05/11 09:50:53;;;;;;;;;;;;;;;;;;5053070;28;19909;-43
2022/05/11 09:53:20;;;;;;;;;;;;;;;;;;5052938;28;19908;-46
2022/05/11 09:55:46;;;;;;;;;;;;;;;;;;5052930;28;19944;-47
2022/05/11 09:58:13;;;;;;;;;;;;;;;;;;5053239;28;19905;-46
2022/05/11 10:00:39;;;;;;;;;;;;;;;;;;5052858;28;19908;-47
2022/05/11 10:03:06;;;;;;;;;;;;;;;;;;5048462;28;19921;-51
2022/05/11 10:05:33;;;;;;;;;;;;;;;;;;5050547;28;19976;-47
2022/05/11 10:07:59;;;;;;;;;;;;;;;;;;5049450;28;19921;-48
2022/05/11 10:10:29;;;;;;;;;;;;;;;;;;5051956;28;19915;-45
2022/05/11 10:12:55;;;;;;;;;;;;;;;;;;5048438;28;20324;-48
2022/05/11 10:23:37;;;;;;;;;;;;;;;;;;5046574;28;19935;-39
2022/05/11 10:26:03;;;;;;;;;;;;;;;;;;5045349;28;19912;-40
2022/05/11 10:28:30;;;;;;;;;;;;;;;;;;5048032;28;20463;-41
2022/05/11 10:30:56;;;;;;;;;;;;;;;;;;5047715;28;20430;-37
2022/05/11 10:33:23;;;;;;;;;;;;;;;;;;5043687;28;20020;-40
2022/05/11 10:35:50;;;;;;;;;;;;;;;;;;5047580;28;19915;-44
2022/05/11 10:38:18;;;;;;;;;;;;;;;;;;5049650;28;19916;-54
2022/05/11 10:40:44;;;;;;;;;;;;;;;;;;5049761;28;19960;-50
2022/05/11 10:43:11;;;;;;;;;;;;;;;;;;5047540;28;19908;-55
2022/05/11 10:45:37;;;;;;;;;;;;;;;;;;5050071;28;20011;-52
2022/05/11 10:48:05;;;;;;;;;;;;;;;;;;5049857;28;20289;-44
2022/05/11 10:50:31;;;;;;;;;;;;;;;;;;5049856;28;19916;-52
2022/05/11 10:52:58;;;;;;;;;;;;;;;;;;5047163;28;19913;-53
2022/05/11 10:55:25;;;;;;;;;;;;;;;;;;5050198;28;19917;-54
2022/05/11 10:57:51;;;;;;;;;;;;;;;;;;5049624;28;19948;-54
2022/05/11 11:00:18;;;;;;;;;;;;;;;;;;5049379;28;19925;-56
2022/05/11 11:02:44;;;;;;;;;;;;;;;;;;5047240;28;19973;-50
2022/05/11 11:05:11;;;;;;;;;;;;;;;;;;5049429;28;20003;-56
2022/05/11 11:07:37;;;;;;;;;;;;;;;;;;5049017;28;19921;-51
2022/05/11 11:10:04;;;;;;;;;;;;;;;;;;5048334;28;20379;-52
2022/05/11 11:12:31;;;;;;;;;;;;;;;;;;5048840;28;20017;-47
2022/05/11 11:14:57;;;;;;;;;;;;;;;;;;5053874;28;19920;-47
2022/05/11 11:17:24;;;;;;;;;;;;;;;;;;5054570;28;20071;-48
2022/05/11 11:19:50;;;;;;;;;;;;;;;;;;5053861;28;19924;-51
2022/05/11 11:22:17;;;;;;;;;;;;;;;;;;5051791;28;19916;-45
2022/05/11 11:24:43;;;;;;;;;;;;;;;;;;5053690;28;20248;-46
2022/05/11 11:27:10;;;;;;;;;;;;;;;;;;5054233;28;20314;-50
2022/05/11 11:29:36;;;;;;;;;;;;;;;;;;5053755;28;19908;-47
2022/05/11 11:32:03;;;;;;;;;;;;;;;;;;5051333;28;19908;-47
2022/05/11 11:34:31;;;;;;;;;;;;;;;;;;5053885;28;19909;-52
2022/05/11 11:36:57;;;;;;;;;;;;;;;;;;5053919;28;20544;-52
2022/05/11 11:39:24;;;;;;;;;;;;;;;;;;5053582;28;19972;-48
2022/05/11 11:41:50;;;;;;;;;;;;;;;;;;5051627;28;19974;-42
2022/05/11 11:44:20;;;;;;;;;;;;;;;;;;5053980;28;19913;-43
2022/05/11 11:46:46;;;;;;;;;;;;;;;;;;5052980;28;19909;-44
2022/05/11 11:49:13;;;;;;;;;;;;;;;;;;5052905;28;19912;-48
2022/05/11 11:51:39;;;;;;;;;;;;;;;;;;5051383;28;20062;-48
2022/05/11 11:54:09;;;;;;;;;;;;;;;;;;5053434;28;20268;-52
2022/05/11 11:56:35;;;;;;;;;;;;;;;;;;5053629;28;20003;-47
2022/05/11 11:59:03;;;;;;;;;;;;;;;;;;5053189;28;19925;-49
2022/05/11 12:01:30;;;;;;;;;;;;;;;;;;5050362;28;19924;-49
2022/05/11 12:03:56;;;;;;;;;;;;;;;;;;5052530;28;19909;-52
2022/05/11 12:17:21;;;;;;;;;;;;;;;;;;5052693;28;19962;-50
2022/05/11 12:19:48;;;;;;;;;;;;;;;;;;5052974;28;19917;-51
2022/05/11 12:22:14;;;;;;;;;;;;;;;;;;5049388;28;19917;-52
2022/05/11 12:24:41;;;;;;;;;;;;;;;;;;5051123;28;19971;-44
2022/05/11 12:27:07;;;;;;;;;;;;;;;;;;5052483;28;19932;-44
2022/05/11 12:32:18;;;;;;;;;;;;;;;;;;5050164;28;19916;-49
2022/05/11 12:34:46;;;;;;;;;;;;;;;;;;5052402;28;20483;-43
2022/05/11 12:37:12;;;;;;;;;;;;;;;;;;5052126;28;20323;-43
2022/05/11 12:39:39;;;;;;;;;;;;;;;;;;5052297;28;19921;-44
2022/05/11 12:42:05;;;;;;;;;;;;;;;;;;5049498;28;20015;-42
2022/05/11 12:44:32;;;;;;;;;;;;;;;;;;5052666;28;19916;-46
2022/05/11 12:46:58;;;;;;;;;;;;;;;;;;5052337;28;19966;-47
2022/05/11 12:49:25;;;;;;;;;;;;;;;;;;5051228;28;19913;-50
2022/05/11 12:51:52;;;;;;;;;;;;;;;;;;5049733;28;19967;-44
2022/05/11 12:54:18;;;;;;;;;;;;;;;;;;5051795;28;20368;-42
2022/05/11 12:56:45;;;;;;;;;;;;;;;;;;5052052;28;20334;-46
2022/05/11 12:59:11;;;;;;;;;;;;;;;;;;5052747;28;19913;-49
2022/05/11 13:01:38;;;;;;;;;;;;;;;;;;5050076;28;19916;-51
2022/05/11 13:04:04;;;;;;;;;;;;;;;;;;5054554;28;19952;-48
2022/05/11 13:06:31;;;;;;;;;;;;;;;;;;5050952;28;19928;-48
2022/05/11 13:08:58;;;;;;;;;;;;;;;;;;5054280;28;19916;-53
2022/05/11 13:11:24;;;;;;;;;;;;;;;;;;5054041;28;19995;-51
2022/05/11 13:13:55;;;;;;;;;;;;;;;;;;5053858;28;19916;-52
2022/05/11 13:16:22;;;;;;;;;;;;;;;;;;5052986;28;19909;-47
2022/05/11 13:18:48;;;;;;;;;;;;;;;;;;5052798;28;19913;-53
2022/05/11 13:21:15;;;;;;;;;;;;;;;;;;5054517;28;19917;-53
2022/05/11 13:23:41;;;;;;;;;;;;;;;;;;5054299;28;19916;-50
2022/05/11 13:26:08;;;;;;;;;;;;;;;;;;5053106;28;19916;-54
2022/05/11 13:28:34;;;;;;;;;;;;;;;;;;5053823;28;20368;-56
2022/05/11 13:31:01;;;;;;;;;;;;;;;;;;5052724;28;19908;-54
2022/05/11 13:33:28;;;;;;;;;;;;;;;;;;5054549;28;19954;-50
2022/05/11 13:35:54;;;;;;;;;;;;;;;;;;5053409;28;19967;-45
2022/05/11 13:38:21;;;;;;;;;;;;;;;;;;5054360;28;19959;-43
2022/05/11 13:40:47;;;;;;;;;;;;;;;;;;5054118;28;19913;-50
2022/05/11 13:43:13;;;;;;;;;;;;;;;;;;5054390;28;19989;-51
2022/05/11 13:45:40;;;;;;;;;;;;;;;;;;5052948;28;20287;-52
2022/05/11 13:48:13;;;;;;;;;;;;;;;;;;5053805;28;20330;-53
2022/05/11 13:50:39;;;;;;;;;;;;;;;;;;5054038;28;19954;-53
2022/05/11 13:53:06;;;;;;;;;;;;;;;;;;5054048;28;20310;-53
2022/05/11 13:55:32;;;;;;;;;;;;;;;;;;5053865;28;19909;-51
2022/05/11 13:57:59;;;;;;;;;;;;;;;;;;5053373;28;19909;-46
2022/05/11 14:00:26;;;;;;;;;;;;;;;;;;5053392;28;19917;-49
2022/05/11 14:02:52;;;;;;;;;;;;;;;;;;5053555;28;20435;-53
2022/05/11 14:05:19;;;;;;;;;;;;;;;;;;5053342;28;19913;-54
2022/05/11 14:07:45;;;;;;;;;;;;;;;;;;5053401;28;20402;-44
2022/05/11 14:10:12;;;;;;;;;;;;;;;;;;5053365;28;20360;-52
2022/05/11 14:12:38;;;;;;;;;;;;;;;;;;5053415;28;19951;-53
2022/05/11 14:15:05;;;;;;;;;;;;;;;;;;5053580;28;20433;-44
2022/05/11 14:17:32;;;;;;;;;;;;;;;;;;5053315;28;19977;-51
2022/05/11 14:19:58;;;;;;;;;;;;;;;;;;5053357;28;19966;-47
2022/05/11 14:22:25;;;;;;;;;;;;;;;;;;5053519;28;19974;-44
2022/05/11 14:24:51;;;;;;;;;;;;;;;;;;5053797;28;20339;-46
2022/05/11 14:27:18;;;;;;;;;;;;;;;;;;5053391;28;19909;-45
2022/05/11 14:29:47;;;;;;;;;;;;;;;;;;5053608;28;19916;-55
2022/05/11 14:32:13;;;;;;;;;;;;;;;;;;5052561;28;20778;-50
2022/05/11 14:34:39;;;;;;;;;;;;;;;;;;5053037;28;19909;-50
2022/05/11 14:37:06;;;;;;;;;;;;;;;;;;5052986;28;19940;-52
2022/05/11 14:39:32;;;;;;;;;;;;;;;;;;5052922;28;19917;-55
2022/05/11 14:41:59;;;;;;;;;;;;;;;;;;5052869;28;19913;-48
2022/05/11 14:44:26;;;;;;;;;;;;;;;;;;5053194;28;19963;-50
2022/05/11 14:46:54;;;;;;;;;;;;;;;;;;5051997;28;20287;-51
2022/05/11 14:49:21;;;;;;;;;;;;;;;;;;5053031;28;19916;-51
2022/05/11 14:51:47;;;;;;;;;;;;;;;;;;5053099;28;19909;-53
2022/05/11 14:54:14;;;;;;;;;;;;;;;;;;5052727;28;19987;-50
2022/05/11 14:56:40;;;;;;;;;;;;;;;;;;5052892;28;20216;-54
2022/05/11 15:01:58;;;;;;;;;;;;;;;;;;5052653;28;20058;-48
2022/05/11 15:04:25;;;;;;;;;;;;;;;;;;5052748;28;19927;-53
2022/05/11 15:06:51;;;;;;;;;;;;;;;;;;5052634;28;19920;-48
2022/05/11 15:09:18;;;;;;;;;;;;;;;;;;5052640;28;20003;-52
2022/05/11 15:14:32;;;;;;;;;;;;;;;;;;5052767;28;19998;-52
2022/05/11 15:16:58;;;;;;;;;;;;;;;;;;5052663;28;20278;-53
2022/05/11 15:19:25;;;;;;;;;;;;;;;;;;5052955;28;20085;-54
2022/05/11 15:21:51;;;;;;;;;;;;;;;;;;5052827;28;19909;-48
2022/05/11 15:24:17;;;;;;;;;;;;;;;;;;5052473;28;19909;-50
2022/05/11 15:26:44;;;;;;;;;;;;;;;;;;5052775;28;19912;-41
2022/05/11 15:29:10;;;;;;;;;;;;;;;;;;5052582;28;19988;-55
2022/05/11 15:31:37;;;;;;;;;;;;;;;;;;5052366;28;20356;-52
2022/05/11 15:34:03;;;;;;;;;;;;;;;;;;5052362;28;20363;-45
2022/05/11 15:36:30;;;;;;;;;;;;;;;;;;5052617;28;19955;-48
2022/05/11 15:38:56;;;;;;;;;;;;;;;;;;5052280;28;20370;-50
2022/05/11 15:41:23;;;;;;;;;;;;;;;;;;5052365;28;20408;-56
2022/05/11 15:43:49;;;;;;;;;;;;;;;;;;5052370;28;20018;-50
2022/05/11 15:46:16;;;;;;;;;;;;;;;;;;5052077;28;19967;-46
2022/05/11 15:48:42;;;;;;;;;;;;;;;;;;5052307;28;19905;-53
2022/05/11 15:51:08;;;;;;;;;;;;;;;;;;5052486;28;19909;-53
2022/05/11 15:53:36;;;;;;;;;;;;;;;;;;5052331;28;19931;-53
2022/05/11 15:56:02;;;;;;;;;;;;;;;;;;5052120;28;19909;-48
2022/05/11 15:58:29;;;;;;;;;;;;;;;;;;5054447;28;19905;-46
2022/05/11 16:00:55;;;;;;;;;;;;;;;;;;5055937;28;19912;-50
2022/05/11 16:03:22;;;;;;;;;;;;;;;;;;5068052;28;20381;-52
2022/05/11 16:05:51;;;;;;;;;;;;;;;;;;5075198;28;19909;-50
2022/05/11 16:08:17;;;;;;;;;;;;;;;;;;5074333;28;19912;-47
2022/05/11 16:10:43;;;;;;;;;;;;;;;;;;5075604;28;19943;-53
2022/05/11 16:13:10;;;;;;;;;;;;;;;;;;5075536;28;19912;-49
2022/05/11 16:15:36;;;;;;;;;;;;;;;;;;5075556;28;19908;-51
2022/05/11 16:20:48;;;;;;;;;;;;;;;;;;5075540;28;20358;-49
2022/05/11 16:23:14;;;;;;;;;;;;;;;;;;5075445;28;19908;-49
2022/05/11 16:25:41;;;;;;;;;;;;;;;;;;5075437;28;19908;-53
2022/05/11 16:28:07;;;;;;;;;;;;;;;;;;5075282;28;19908;-46
2022/05/11 16:30:33;;;;;;;;;;;;;;;;;;5075358;28;19905;-51
2022/05/11 16:33:00;;;;;;;;;;;;;;;;;;5075245;28;19909;-44
2022/05/11 16:35:26;;;;;;;;;;;;;;;;;;5075168;28;19905;-53
2022/05/11 16:37:53;;;;;;;;;;;;;;;;;;5075263;28;19909;-51
2022/05/11 16:40:20;;;;;;;;;;;;;;;;;;5075018;28;19916;-50
2022/05/11 16:42:47;;;;;;;;;;;;;;;;;;5075054;28;19916;-50
2022/05/11 16:45:14;;;;;;;;;;;;;;;;;;5074709;28;20011;-55
2022/05/11 16:47:40;;;;;;;;;;;;;;;;;;5075016;28;20269;-49
2022/05/11 16:50:07;;;;;;;;;;;;;;;;;;5074731;28;19908;-52
2022/05/11 16:52:33;;;;;;;;;;;;;;;;;;5074971;28;19908;-45
2022/05/11 16:55:00;;;;;;;;;;;;;;;;;;5074871;28;19923;-51
2022/05/11 16:57:26;;;;;;;;;;;;;;;;;;5074931;28;19909;-54
2022/05/11 16:59:53;;;;;;;;;;;;;;;;;;5074513;28;19916;-51
2022/05/11 17:02:19;;;;;;;;;;;;;;;;;;5074570;28;19916;-53
2022/05/11 17:04:46;;;;;;;;;;;;;;;;;;5074781;28;20327;-56
2022/05/11 17:07:12;;;;;;;;;;;;;;;;;;5074383;28;19926;-51
2022/05/11 17:09:39;;;;;;;;;;;;;;;;;;5073991;28;19908;-55
2022/05/11 17:12:05;;;;;;;;;;;;;;;;;;5074419;28;20391;-48
2022/05/11 17:14:32;;;;;;;;;;;;;;;;;;5074580;28;19909;-51
2022/05/11 17:16:58;;;;;;;;;;;;;;;;;;5074155;28;19909;-49
2022/05/11 17:19:24;;;;;;;;;;;;;;;;;;5074203;28;19916;-53
2022/05/11 17:21:51;;;;;;;;;;;;;;;;;;5074353;28;19908;-53
2022/05/11 17:24:17;;;;;;;;;;;;;;;;;;5074125;28;19908;-52
2022/05/11 17:26:44;;;;;;;;;;;;;;;;;;5074190;28;19955;-49
2022/05/11 17:29:11;;;;;;;;;;;;;;;;;;5074034;28;19909;-54
2022/05/11 17:31:37;;;;;;;;;;;;;;;;;;5073912;28;20326;-51
2022/05/11 17:34:03;;;;;;;;;;;;;;;;;;5073821;28;19948;-47